AXY152K LPPT-FMEE
Flight info
| Callsign | AXY152K |
|---|---|
| Flight time | N/A |
| Altitude | 32000 |
| Route | IXIDA DCT OGERO Z409 TLD/N0441F330 DCT MABUX/N0435F320 M871 LASPO Z224 NINES M134 GENIO/N0438F340 M134 LUXUR/N0438F330 UM134 ANB UA411 MORJA UM978 KEMIR UA411 TUC UR781 ADRIL UM978 SONAK DCT SOPIR/N0437F350 DCT EVIRA DCT ABNAT DCT DEMAG DCT ARLOS UN4 SALUN L604 BRN Z991 NUBAR/N0440F370 N321 TIKAT G300 IBTAN/N0439F390 G300 MAV UM665 ITLOX/N0435F380 UM665 ANTIS/N0434F400 UM665 ANKOR/N0428F390 UA665 UVDUK/N0430F400 UL441 IXEBU/N0426F390 UN304 UVENA UVENA2R |
| Aircraft | B737/M-DE1E2E3FGHIJ3J4J5J7LM1OP2RVWXYZ/HB1D1 |
Departure
| Time | N/A |
|---|---|
| Airport | Lisbon Humberto Delgado Airport (LPPT) |
Arrival
| Time | 2026-04-14 13:59 |
|---|---|
| Airport | Roland Garros Airport (FMEE) |
| Time | Latitude | Longitude | Altitude | Speed | Heading |
|---|---|---|---|---|---|
| 2026-04-14 11:20 | -3.13515 | 46.23381 | 37897 ft | 468 kts | 150° |
| 2026-04-14 11:20 | -3.16279 | 46.25105 | 37897 ft | 468 kts | 150° |
| 2026-04-14 11:20 | -3.21811 | 46.28554 | 37896 ft | 469 kts | 150° |
| 2026-04-14 11:21 | -3.27310 | 46.31983 | 37897 ft | 469 kts | 150° |
| 2026-04-14 11:21 | -3.32851 | 46.35439 | 37899 ft | 469 kts | 150° |
| 2026-04-14 11:22 | -3.38390 | 46.38894 | 37896 ft | 470 kts | 150° |
| 2026-04-14 11:22 | -3.43942 | 46.42357 | 37894 ft | 470 kts | 150° |
| 2026-04-14 11:23 | -3.49496 | 46.45823 | 37897 ft | 470 kts | 150° |
| 2026-04-14 11:23 | -3.55054 | 46.49291 | 37895 ft | 471 kts | 150° |
| 2026-04-14 11:24 | -3.60616 | 46.52762 | 37896 ft | 471 kts | 150° |
| 2026-04-14 11:24 | -3.66182 | 46.56236 | 37893 ft | 471 kts | 150° |
| 2026-04-14 11:25 | -3.71744 | 46.59709 | 37894 ft | 472 kts | 150° |
| 2026-04-14 11:25 | -3.77318 | 46.63189 | 37897 ft | 472 kts | 150° |
| 2026-04-14 11:26 | -3.82887 | 46.66667 | 37895 ft | 472 kts | 150° |
| 2026-04-14 11:26 | -3.88461 | 46.70149 | 37894 ft | 472 kts | 150° |
| 2026-04-14 11:27 | -3.94036 | 46.73632 | 37900 ft | 472 kts | 150° |
| 2026-04-14 11:27 | -3.99613 | 46.77116 | 37896 ft | 472 kts | 150° |
| 2026-04-14 11:28 | -4.05191 | 46.80602 | 37893 ft | 473 kts | 150° |
| 2026-04-14 11:28 | -4.10769 | 46.84089 | 37895 ft | 473 kts | 150° |
| 2026-04-14 11:29 | -4.16344 | 46.87575 | 37898 ft | 473 kts | 150° |
| 2026-04-14 11:29 | -4.21927 | 46.91066 | 37898 ft | 473 kts | 150° |
| 2026-04-14 11:30 | -4.27514 | 46.94559 | 37896 ft | 473 kts | 150° |
| 2026-04-14 11:30 | -4.33104 | 46.98057 | 37895 ft | 474 kts | 150° |
| 2026-04-14 11:31 | -4.38659 | 47.01535 | 37894 ft | 474 kts | 150° |
| 2026-04-14 11:31 | -4.44255 | 47.05040 | 37894 ft | 474 kts | 150° |
| 2026-04-14 11:32 | -4.49855 | 47.08547 | 37896 ft | 475 kts | 150° |
| 2026-04-14 11:32 | -4.55460 | 47.12058 | 37894 ft | 475 kts | 150° |
| 2026-04-14 11:33 | -4.61066 | 47.15570 | 37896 ft | 476 kts | 150° |
| 2026-04-14 11:34 | -4.69488 | 47.20848 | 37897 ft | 476 kts | 150° |
| 2026-04-14 11:34 | -4.75107 | 47.24371 | 37892 ft | 476 kts | 150° |
| 2026-04-14 11:35 | -4.80705 | 47.27880 | 37894 ft | 477 kts | 151° |
| 2026-04-14 11:35 | -4.86366 | 47.31430 | 37896 ft | 477 kts | 151° |
| 2026-04-14 11:36 | -4.91959 | 47.34938 | 37893 ft | 477 kts | 151° |
| 2026-04-14 11:36 | -4.97598 | 47.38476 | 37896 ft | 478 kts | 151° |
| 2026-04-14 11:37 | -5.03227 | 47.42008 | 37896 ft | 478 kts | 151° |
| 2026-04-14 11:37 | -5.08871 | 47.45549 | 37891 ft | 478 kts | 151° |
| 2026-04-14 11:38 | -5.14503 | 47.49085 | 37897 ft | 478 kts | 151° |
| 2026-04-14 11:38 | -5.20141 | 47.52625 | 37891 ft | 478 kts | 151° |
| 2026-04-14 11:39 | -5.25780 | 47.56166 | 37893 ft | 478 kts | 151° |
| 2026-04-14 11:39 | -5.31418 | 47.59708 | 37897 ft | 478 kts | 151° |
| 2026-04-14 11:40 | -5.37056 | 47.63250 | 37890 ft | 478 kts | 151° |
| 2026-04-14 11:40 | -5.42694 | 47.66792 | 37887 ft | 478 kts | 151° |
| 2026-04-14 11:41 | -5.48330 | 47.70335 | 37892 ft | 478 kts | 151° |
| 2026-04-14 11:41 | -5.53965 | 47.73878 | 37888 ft | 478 kts | 151° |
| 2026-04-14 11:42 | -5.59601 | 47.77421 | 37887 ft | 478 kts | 151° |
| 2026-04-14 11:42 | -5.65199 | 47.80942 | 37888 ft | 478 kts | 151° |
| 2026-04-14 11:43 | -5.70835 | 47.84489 | 37889 ft | 478 kts | 151° |
| 2026-04-14 11:43 | -5.76471 | 47.88035 | 37889 ft | 478 kts | 151° |
| 2026-04-14 11:44 | -5.82114 | 47.91586 | 37887 ft | 479 kts | 151° |
| 2026-04-14 11:44 | -5.87760 | 47.95141 | 37890 ft | 479 kts | 151° |
| 2026-04-14 11:45 | -5.93409 | 47.98699 | 37885 ft | 480 kts | 150° |
| 2026-04-14 11:45 | -5.99067 | 48.02262 | 37885 ft | 480 kts | 150° |
| 2026-04-14 11:46 | -6.04729 | 48.05830 | 37887 ft | 481 kts | 150° |
| 2026-04-14 11:46 | -6.10396 | 48.09401 | 37886 ft | 481 kts | 150° |
| 2026-04-14 11:47 | -6.16064 | 48.12974 | 37892 ft | 481 kts | 150° |
| 2026-04-14 11:47 | -6.21739 | 48.16552 | 37894 ft | 482 kts | 150° |
| 2026-04-14 11:48 | -6.27417 | 48.20133 | 37891 ft | 482 kts | 150° |
| 2026-04-14 11:48 | -6.33098 | 48.23717 | 37897 ft | 482 kts | 150° |
| 2026-04-14 11:49 | -6.38780 | 48.27302 | 37889 ft | 482 kts | 150° |
| 2026-04-14 11:49 | -6.44462 | 48.30889 | 37888 ft | 482 kts | 150° |
| 2026-04-14 11:50 | -6.49180 | 48.33867 | 37891 ft | 482 kts | 150° |
| 2026-04-14 11:50 | -6.54861 | 48.37455 | 37894 ft | 482 kts | 150° |
| 2026-04-14 11:51 | -6.63381 | 48.42837 | 37894 ft | 482 kts | 150° |
| 2026-04-14 11:51 | -6.69061 | 48.46427 | 37897 ft | 482 kts | 150° |
| 2026-04-14 11:52 | -6.74741 | 48.50017 | 37890 ft | 482 kts | 150° |
| 2026-04-14 11:52 | -6.80421 | 48.53609 | 37894 ft | 482 kts | 150° |
| 2026-04-14 11:53 | -6.86101 | 48.57202 | 37891 ft | 482 kts | 150° |
| 2026-04-14 11:53 | -6.91781 | 48.60796 | 37895 ft | 482 kts | 150° |
| 2026-04-14 11:54 | -6.97462 | 48.64391 | 37894 ft | 482 kts | 150° |
| 2026-04-14 11:54 | -7.03252 | 48.67685 | 37902 ft | 480 kts | 155° |
| 2026-04-14 11:55 | -7.09203 | 48.70746 | 37903 ft | 480 kts | 156° |
| 2026-04-14 11:55 | -7.15194 | 48.73833 | 37895 ft | 481 kts | 155° |
| 2026-04-14 11:56 | -7.21082 | 48.76921 | 37891 ft | 481 kts | 155° |
| 2026-04-14 11:56 | -7.27002 | 48.80056 | 37900 ft | 481 kts | 155° |
| 2026-04-14 11:57 | -7.32921 | 48.83196 | 37896 ft | 481 kts | 155° |
| 2026-04-14 11:57 | -7.38831 | 48.86331 | 37891 ft | 480 kts | 155° |
| 2026-04-14 11:58 | -7.44753 | 48.89472 | 37900 ft | 480 kts | 155° |
| 2026-04-14 11:58 | -7.50659 | 48.92605 | 37897 ft | 480 kts | 155° |
| 2026-04-14 11:59 | -7.56569 | 48.95740 | 37893 ft | 480 kts | 155° |
| 2026-04-14 11:59 | -7.62475 | 48.98874 | 37894 ft | 479 kts | 155° |
| 2026-04-14 12:00 | -7.68376 | 49.02007 | 37897 ft | 479 kts | 155° |
| 2026-04-14 12:00 | -7.74273 | 49.05138 | 37899 ft | 479 kts | 155° |
| 2026-04-14 12:01 | -7.80164 | 49.08268 | 37898 ft | 478 kts | 155° |
| 2026-04-14 12:01 | -7.86052 | 49.11396 | 37897 ft | 478 kts | 155° |
| 2026-04-14 12:02 | -7.91928 | 49.14520 | 37897 ft | 478 kts | 155° |
| 2026-04-14 12:02 | -7.97770 | 49.17626 | 37890 ft | 478 kts | 155° |
| 2026-04-14 12:03 | -8.03649 | 49.20753 | 37893 ft | 478 kts | 155° |
| 2026-04-14 12:03 | -8.09528 | 49.23881 | 37901 ft | 478 kts | 155° |
| 2026-04-14 12:04 | -8.15405 | 49.27009 | 37900 ft | 477 kts | 155° |
| 2026-04-14 12:04 | -8.21282 | 49.30138 | 37900 ft | 477 kts | 155° |
| 2026-04-14 12:05 | -8.27158 | 49.33268 | 37903 ft | 477 kts | 155° |
| 2026-04-14 12:05 | -8.33027 | 49.36395 | 37893 ft | 477 kts | 154° |
| 2026-04-14 12:06 | -8.38905 | 49.39528 | 37905 ft | 477 kts | 154° |
| 2026-04-14 12:06 | -8.44771 | 49.42655 | 37900 ft | 477 kts | 154° |
| 2026-04-14 12:07 | -8.50633 | 49.45782 | 37906 ft | 476 kts | 154° |
| 2026-04-14 12:07 | -8.56488 | 49.48905 | 37895 ft | 476 kts | 154° |
| 2026-04-14 12:08 | -8.62343 | 49.52030 | 37900 ft | 476 kts | 154° |
| 2026-04-14 12:08 | -8.68196 | 49.55155 | 37906 ft | 475 kts | 154° |
| 2026-04-14 12:09 | -8.74039 | 49.58276 | 37905 ft | 475 kts | 154° |
| 2026-04-14 12:09 | -8.79881 | 49.61397 | 37898 ft | 475 kts | 154° |
| 2026-04-14 12:10 | -8.85731 | 49.64524 | 38294 ft | 474 kts | 154° |
| 2026-04-14 12:10 | -8.88636 | 49.66077 | 38677 ft | 470 kts | 154° |
| 2026-04-14 12:10 | -8.91518 | 49.67619 | 38985 ft | 467 kts | 154° |
| 2026-04-14 12:11 | -8.94392 | 49.69157 | 39161 ft | 468 kts | 154° |
| 2026-04-14 12:11 | -8.97267 | 49.70694 | 39293 ft | 469 kts | 154° |
| 2026-04-14 12:11 | -9.00160 | 49.72240 | 39406 ft | 471 kts | 154° |
| 2026-04-14 12:11 | -9.03060 | 49.73791 | 39560 ft | 472 kts | 154° |
| 2026-04-14 12:12 | -9.05963 | 49.75345 | 39775 ft | 470 kts | 154° |
| 2026-04-14 12:12 | -9.08846 | 49.76889 | 39915 ft | 471 kts | 154° |
| 2026-04-14 12:12 | -9.14649 | 49.79996 | 39904 ft | 471 kts | 154° |
| 2026-04-14 12:13 | -9.20378 | 49.83066 | 39908 ft | 467 kts | 154° |
| 2026-04-14 12:13 | -9.26108 | 49.86137 | 39908 ft | 465 kts | 154° |
| 2026-04-14 12:14 | -9.31814 | 49.89195 | 39917 ft | 463 kts | 154° |
| 2026-04-14 12:14 | -9.37508 | 49.92248 | 39907 ft | 464 kts | 154° |
| 2026-04-14 12:15 | -9.43208 | 49.95305 | 39917 ft | 464 kts | 154° |
| 2026-04-14 12:15 | -9.48913 | 49.98366 | 39914 ft | 464 kts | 154° |
| 2026-04-14 12:16 | -9.54630 | 50.01436 | 39915 ft | 465 kts | 154° |
| 2026-04-14 12:16 | -9.60355 | 50.04510 | 39915 ft | 466 kts | 154° |
| 2026-04-14 12:17 | -9.66091 | 50.07592 | 39912 ft | 467 kts | 154° |
| 2026-04-14 12:17 | -9.71830 | 50.10676 | 39914 ft | 468 kts | 154° |
| 2026-04-14 12:18 | -9.77581 | 50.13769 | 39918 ft | 468 kts | 154° |
| 2026-04-14 12:18 | -9.83337 | 50.16866 | 39919 ft | 468 kts | 154° |
| 2026-04-14 12:19 | -9.89098 | 50.19965 | 39917 ft | 469 kts | 154° |
| 2026-04-14 12:19 | -9.94862 | 50.23068 | 39918 ft | 469 kts | 154° |
| 2026-04-14 12:20 | -10.00628 | 50.26173 | 39919 ft | 469 kts | 154° |
| 2026-04-14 12:20 | -10.06396 | 50.29280 | 39919 ft | 469 kts | 153° |
| 2026-04-14 12:21 | -10.12161 | 50.32387 | 39918 ft | 470 kts | 154° |
| 2026-04-14 12:21 | -10.17934 | 50.35501 | 39922 ft | 470 kts | 153° |
| 2026-04-14 12:22 | -10.23673 | 50.38596 | 39917 ft | 470 kts | 153° |
| 2026-04-14 12:22 | -10.29454 | 50.41715 | 39922 ft | 471 kts | 153° |
| 2026-04-14 12:23 | -10.35240 | 50.44839 | 39920 ft | 471 kts | 153° |
| 2026-04-14 12:23 | -10.41032 | 50.47968 | 39923 ft | 472 kts | 153° |
| 2026-04-14 12:24 | -10.46828 | 50.51099 | 39920 ft | 472 kts | 153° |
| 2026-04-14 12:24 | -10.52627 | 50.54234 | 39920 ft | 472 kts | 153° |
| 2026-04-14 12:25 | -10.58429 | 50.57372 | 39918 ft | 472 kts | 153° |
| 2026-04-14 12:25 | -10.64235 | 50.60513 | 39923 ft | 473 kts | 153° |
| 2026-04-14 12:26 | -10.70045 | 50.63658 | 39924 ft | 473 kts | 153° |
| 2026-04-14 12:26 | -10.75860 | 50.66806 | 39919 ft | 474 kts | 153° |
| 2026-04-14 12:27 | -10.81680 | 50.69959 | 39922 ft | 474 kts | 153° |
| 2026-04-14 12:27 | -10.87507 | 50.73117 | 39924 ft | 475 kts | 153° |
| 2026-04-14 12:28 | -10.93339 | 50.76279 | 39924 ft | 475 kts | 153° |
| 2026-04-14 12:28 | -10.99177 | 50.79446 | 39924 ft | 476 kts | 153° |
| 2026-04-14 12:29 | -11.05021 | 50.82618 | 39918 ft | 476 kts | 153° |
| 2026-04-14 12:29 | -11.10825 | 50.85769 | 39927 ft | 477 kts | 153° |
| 2026-04-14 12:30 | -11.16680 | 50.88950 | 39924 ft | 477 kts | 153° |
| 2026-04-14 12:30 | -11.22540 | 50.92134 | 39926 ft | 477 kts | 153° |
| 2026-04-14 12:31 | -11.28405 | 50.95323 | 39929 ft | 478 kts | 153° |
| 2026-04-14 12:31 | -11.34275 | 50.98516 | 39927 ft | 478 kts | 153° |
| 2026-04-14 12:32 | -11.40152 | 51.01715 | 39928 ft | 479 kts | 153° |
| 2026-04-14 12:32 | -11.46036 | 51.04918 | 39930 ft | 480 kts | 153° |
| 2026-04-14 12:33 | -11.51927 | 51.08128 | 39931 ft | 480 kts | 153° |
| 2026-04-14 12:33 | -11.57826 | 51.11342 | 39932 ft | 481 kts | 153° |
| 2026-04-14 12:34 | -11.63731 | 51.14562 | 39931 ft | 482 kts | 153° |
| 2026-04-14 12:34 | -11.69637 | 51.17784 | 39932 ft | 482 kts | 153° |
| 2026-04-14 12:35 | -11.75555 | 51.21014 | 39932 ft | 483 kts | 153° |
| 2026-04-14 12:35 | -11.81479 | 51.24249 | 39935 ft | 483 kts | 153° |
| 2026-04-14 12:36 | -11.87408 | 51.27489 | 39936 ft | 483 kts | 153° |
| 2026-04-14 12:36 | -11.93340 | 51.30731 | 39934 ft | 484 kts | 153° |
| 2026-04-14 12:37 | -11.98267 | 51.33426 | 39935 ft | 484 kts | 153° |
| 2026-04-14 12:37 | -12.04201 | 51.36673 | 39937 ft | 484 kts | 153° |
| 2026-04-14 12:38 | -12.14099 | 51.41988 | 39939 ft | 483 kts | 157° |
| 2026-04-14 12:39 | -12.19239 | 51.44322 | 39944 ft | 482 kts | 159° |
| 2026-04-14 12:39 | -12.25369 | 51.46984 | 39938 ft | 482 kts | 159° |
| 2026-04-14 12:40 | -12.31530 | 51.49690 | 39945 ft | 482 kts | 159° |
| 2026-04-14 12:40 | -12.37717 | 51.52448 | 39942 ft | 482 kts | 159° |
| 2026-04-14 12:41 | -12.43857 | 51.55201 | 39943 ft | 482 kts | 159° |
| 2026-04-14 12:41 | -12.49989 | 51.57952 | 39946 ft | 482 kts | 159° |
| 2026-04-14 12:42 | -12.56086 | 51.60687 | 39944 ft | 482 kts | 159° |
| 2026-04-14 12:42 | -12.62223 | 51.63440 | 39947 ft | 481 kts | 159° |
| 2026-04-14 12:43 | -12.68359 | 51.66194 | 39948 ft | 481 kts | 159° |
| 2026-04-14 12:43 | -12.74493 | 51.68949 | 39949 ft | 481 kts | 159° |
| 2026-04-14 12:44 | -12.80626 | 51.71704 | 39949 ft | 481 kts | 159° |
| 2026-04-14 12:44 | -12.86756 | 51.74460 | 39950 ft | 481 kts | 159° |
| 2026-04-14 12:45 | -12.95946 | 51.78595 | 39950 ft | 481 kts | 159° |
| 2026-04-14 12:45 | -13.02069 | 51.81351 | 39956 ft | 480 kts | 159° |
| 2026-04-14 12:46 | -13.08189 | 51.84108 | 39955 ft | 480 kts | 159° |
| 2026-04-14 12:46 | -13.14300 | 51.86862 | 39951 ft | 480 kts | 159° |
| 2026-04-14 12:47 | -13.20413 | 51.89619 | 39958 ft | 480 kts | 159° |
| 2026-04-14 12:47 | -13.26522 | 51.92375 | 39953 ft | 479 kts | 159° |
| 2026-04-14 12:48 | -13.32623 | 51.95129 | 39957 ft | 479 kts | 159° |
| 2026-04-14 12:48 | -13.38717 | 51.97882 | 39957 ft | 478 kts | 159° |
| 2026-04-14 12:49 | -13.44801 | 52.00632 | 39960 ft | 477 kts | 159° |
| 2026-04-14 12:49 | -13.50875 | 52.03378 | 39959 ft | 476 kts | 159° |
| 2026-04-14 12:50 | -13.59926 | 52.07473 | 39961 ft | 475 kts | 159° |
| 2026-04-14 12:51 | -13.65972 | 52.10212 | 39957 ft | 474 kts | 159° |
| 2026-04-14 12:51 | -13.72009 | 52.12948 | 39962 ft | 474 kts | 159° |
| 2026-04-14 12:52 | -13.78035 | 52.15681 | 39962 ft | 473 kts | 159° |
| 2026-04-14 12:52 | -13.84051 | 52.18410 | 39961 ft | 472 kts | 159° |
| 2026-04-14 12:53 | -13.90059 | 52.21138 | 39964 ft | 472 kts | 159° |
| 2026-04-14 12:53 | -13.96059 | 52.23864 | 39965 ft | 471 kts | 159° |
| 2026-04-14 12:54 | -14.02052 | 52.26587 | 39964 ft | 470 kts | 159° |
| 2026-04-14 12:54 | -14.08037 | 52.29309 | 39965 ft | 470 kts | 159° |
| 2026-04-14 12:55 | -14.14015 | 52.32029 | 39964 ft | 469 kts | 159° |
| 2026-04-14 12:55 | -14.19987 | 52.34748 | 39965 ft | 469 kts | 159° |
| 2026-04-14 12:56 | -14.25947 | 52.37463 | 39969 ft | 469 kts | 159° |
| 2026-04-14 12:56 | -14.31912 | 52.40182 | 39966 ft | 469 kts | 159° |
| 2026-04-14 12:57 | -14.37880 | 52.42904 | 39973 ft | 469 kts | 159° |
| 2026-04-14 12:57 | -14.43815 | 52.45612 | 39970 ft | 470 kts | 159° |
| 2026-04-14 12:58 | -14.49800 | 52.48345 | 39971 ft | 471 kts | 159° |
| 2026-04-14 12:58 | -14.55797 | 52.51085 | 39980 ft | 472 kts | 159° |
| 2026-04-14 12:59 | -14.61799 | 52.53829 | 39974 ft | 473 kts | 159° |
| 2026-04-14 12:59 | -14.67826 | 52.56585 | 39981 ft | 473 kts | 159° |
| 2026-04-14 13:00 | -14.73853 | 52.59344 | 39979 ft | 474 kts | 159° |
| 2026-04-14 13:00 | -14.79884 | 52.62107 | 39978 ft | 474 kts | 159° |
| 2026-04-14 13:01 | -14.85916 | 52.64871 | 39979 ft | 474 kts | 159° |
| 2026-04-14 13:01 | -14.91939 | 52.67633 | 39980 ft | 474 kts | 159° |
| 2026-04-14 13:02 | -14.97966 | 52.70398 | 39980 ft | 474 kts | 159° |
| 2026-04-14 13:02 | -15.03985 | 52.73162 | 39980 ft | 473 kts | 159° |
| 2026-04-14 13:03 | -15.09998 | 52.75925 | 39979 ft | 472 kts | 159° |
| 2026-04-14 13:03 | -15.15964 | 52.78667 | 39977 ft | 472 kts | 159° |
| 2026-04-14 13:04 | -15.21962 | 52.81426 | 39979 ft | 471 kts | 159° |
| 2026-04-14 13:04 | -15.27953 | 52.84184 | 39981 ft | 471 kts | 159° |
| 2026-04-14 13:05 | -15.33940 | 52.86941 | 39986 ft | 471 kts | 159° |
| 2026-04-14 13:05 | -15.39925 | 52.89699 | 39980 ft | 470 kts | 159° |
| 2026-04-14 13:06 | -15.45904 | 52.92456 | 39982 ft | 470 kts | 159° |
| 2026-04-14 13:06 | -15.51880 | 52.95214 | 39982 ft | 470 kts | 159° |
| 2026-04-14 13:07 | -15.57846 | 52.97968 | 39984 ft | 470 kts | 159° |
| 2026-04-14 13:07 | -15.63816 | 53.00726 | 39983 ft | 470 kts | 159° |
| 2026-04-14 13:08 | -15.69783 | 53.03485 | 39983 ft | 469 kts | 159° |
| 2026-04-14 13:08 | -15.75749 | 53.06245 | 39991 ft | 469 kts | 159° |
| 2026-04-14 13:09 | -15.81714 | 53.09006 | 39989 ft | 469 kts | 159° |
| 2026-04-14 13:09 | -15.87678 | 53.11769 | 39989 ft | 469 kts | 159° |
| 2026-04-14 13:10 | -15.93642 | 53.14533 | 39994 ft | 469 kts | 159° |
| 2026-04-14 13:10 | -15.99599 | 53.17296 | 39992 ft | 469 kts | 159° |
| 2026-04-14 13:11 | -16.05561 | 53.20064 | 39990 ft | 469 kts | 159° |
| 2026-04-14 13:11 | -16.11523 | 53.22832 | 39996 ft | 469 kts | 159° |
| 2026-04-14 13:12 | -16.17443 | 53.25584 | 39996 ft | 469 kts | 159° |
| 2026-04-14 13:12 | -16.23400 | 53.28354 | 39997 ft | 469 kts | 159° |
| 2026-04-14 13:13 | -16.29355 | 53.31126 | 39997 ft | 469 kts | 159° |
| 2026-04-14 13:13 | -16.35308 | 53.33899 | 39996 ft | 469 kts | 159° |
| 2026-04-14 13:14 | -16.41258 | 53.36671 | 39995 ft | 468 kts | 159° |
| 2026-04-14 13:14 | -16.47208 | 53.39440 | 39996 ft | 468 kts | 159° |
| 2026-04-14 13:15 | -16.53155 | 53.42209 | 39999 ft | 468 kts | 159° |
| 2026-04-14 13:15 | -16.59101 | 53.44981 | 39996 ft | 468 kts | 159° |
| 2026-04-14 13:16 | -16.65040 | 53.47751 | 39998 ft | 468 kts | 159° |
| 2026-04-14 13:16 | -16.70984 | 53.50527 | 39997 ft | 468 kts | 159° |
| 2026-04-14 13:17 | -16.76927 | 53.53303 | 39998 ft | 468 kts | 159° |
| 2026-04-14 13:17 | -16.82870 | 53.56081 | 40000 ft | 468 kts | 159° |
| 2026-04-14 13:18 | -16.88810 | 53.58861 | 40002 ft | 468 kts | 159° |
| 2026-04-14 13:18 | -16.94749 | 53.61641 | 40000 ft | 468 kts | 159° |
| 2026-04-14 13:19 | -17.00685 | 53.64422 | 40000 ft | 467 kts | 159° |
| 2026-04-14 13:19 | -17.06620 | 53.67205 | 40003 ft | 467 kts | 159° |
| 2026-04-14 13:20 | -17.12554 | 53.69988 | 40006 ft | 467 kts | 159° |
| 2026-04-14 13:20 | -17.18487 | 53.72774 | 40009 ft | 467 kts | 159° |
| 2026-04-14 13:21 | -17.24419 | 53.75560 | 40005 ft | 467 kts | 159° |
| 2026-04-14 13:21 | -17.30342 | 53.78345 | 40010 ft | 467 kts | 159° |
| 2026-04-14 13:22 | -17.36272 | 53.81135 | 40002 ft | 467 kts | 159° |
| 2026-04-14 13:22 | -17.42199 | 53.83926 | 40008 ft | 467 kts | 159° |
| 2026-04-14 13:23 | -17.48126 | 53.86718 | 40008 ft | 467 kts | 159° |
| 2026-04-14 13:23 | -17.54050 | 53.89511 | 40015 ft | 467 kts | 159° |
| 2026-04-14 13:24 | -17.59927 | 53.92284 | 40009 ft | 467 kts | 159° |
| 2026-04-14 13:24 | -17.68811 | 53.96480 | 40007 ft | 466 kts | 159° |
| 2026-04-14 13:25 | -17.74725 | 53.99275 | 40018 ft | 466 kts | 159° |
| 2026-04-14 13:26 | -17.85546 | 54.04396 | 40017 ft | 466 kts | 159° |
| 2026-04-14 13:26 | -17.91456 | 54.07195 | 40011 ft | 466 kts | 159° |
| 2026-04-14 13:27 | -17.97365 | 54.09997 | 40010 ft | 466 kts | 159° |
| 2026-04-14 13:27 | -18.03275 | 54.12800 | 40011 ft | 466 kts | 159° |
| 2026-04-14 13:28 | -18.09184 | 54.15606 | 40017 ft | 466 kts | 159° |
| 2026-04-14 13:28 | -18.15096 | 54.18406 | 40015 ft | 466 kts | 159° |
| 2026-04-14 13:29 | -18.21004 | 54.21200 | 40017 ft | 466 kts | 159° |
| 2026-04-14 13:29 | -18.26917 | 54.23999 | 40015 ft | 466 kts | 159° |
| 2026-04-14 13:30 | -18.32829 | 54.26802 | 40017 ft | 466 kts | 159° |
| 2026-04-14 13:30 | -18.38740 | 54.29607 | 40018 ft | 466 kts | 159° |
| 2026-04-14 13:31 | -18.44649 | 54.32413 | 40018 ft | 466 kts | 159° |
| 2026-04-14 13:31 | -18.50555 | 54.35220 | 40017 ft | 466 kts | 159° |
| 2026-04-14 13:32 | -18.56459 | 54.38028 | 40020 ft | 465 kts | 159° |
| 2026-04-14 13:32 | -18.62373 | 54.40794 | 40020 ft | 464 kts | 161° |
| 2026-04-14 13:33 | -18.68375 | 54.43258 | 40023 ft | 463 kts | 162° |
| 2026-04-14 13:33 | -18.74410 | 54.45648 | 40020 ft | 463 kts | 163° |
| 2026-04-14 13:34 | -18.83437 | 54.49229 | 40023 ft | 462 kts | 162° |
| 2026-04-14 13:35 | -18.89451 | 54.51629 | 40025 ft | 462 kts | 162° |
| 2026-04-14 13:35 | -18.95459 | 54.54033 | 40024 ft | 461 kts | 162° |
| 2026-04-14 13:36 | -19.01425 | 54.56422 | 40026 ft | 461 kts | 162° |
| 2026-04-14 13:36 | -19.07424 | 54.58825 | 40025 ft | 461 kts | 162° |
| 2026-04-14 13:37 | -19.13414 | 54.61227 | 40026 ft | 460 kts | 162° |
| 2026-04-14 13:37 | -19.19404 | 54.63630 | 40027 ft | 460 kts | 162° |
| 2026-04-14 13:37 | -19.22414 | 54.64837 | 39610 ft | 467 kts | 162° |
| 2026-04-14 13:38 | -19.25458 | 54.66059 | 39019 ft | 467 kts | 162° |
| 2026-04-14 13:38 | -19.28492 | 54.67278 | 38293 ft | 466 kts | 161° |
| 2026-04-14 13:38 | -19.31522 | 54.68497 | 37520 ft | 465 kts | 161° |
| 2026-04-14 13:38 | -19.34546 | 54.69713 | 36774 ft | 464 kts | 161° |
| 2026-04-14 13:39 | -19.37556 | 54.70925 | 36031 ft | 464 kts | 161° |
| 2026-04-14 13:39 | -19.40581 | 54.72142 | 35201 ft | 465 kts | 161° |
| 2026-04-14 13:39 | -19.43611 | 54.73362 | 34329 ft | 467 kts | 161° |
| 2026-04-14 13:39 | -19.46657 | 54.74590 | 33345 ft | 470 kts | 161° |
| 2026-04-14 13:40 | -19.49691 | 54.75814 | 32698 ft | 463 kts | 161° |
| 2026-04-14 13:40 | -19.52687 | 54.77022 | 32032 ft | 458 kts | 161° |
| 2026-04-14 13:40 | -19.55647 | 54.78217 | 31395 ft | 452 kts | 161° |
| 2026-04-14 13:40 | -19.58573 | 54.79397 | 30773 ft | 447 kts | 161° |
| 2026-04-14 13:41 | -19.61428 | 54.80548 | 30168 ft | 443 kts | 161° |
| 2026-04-14 13:41 | -19.64290 | 54.81703 | 29461 ft | 438 kts | 161° |
| 2026-04-14 13:41 | -19.67120 | 54.82846 | 28767 ft | 432 kts | 161° |
| 2026-04-14 13:41 | -19.69912 | 54.83974 | 28134 ft | 426 kts | 161° |
| 2026-04-14 13:42 | -19.72669 | 54.85088 | 27491 ft | 422 kts | 161° |
| 2026-04-14 13:42 | -19.75395 | 54.86190 | 26865 ft | 417 kts | 161° |
| 2026-04-14 13:42 | -19.78091 | 54.87280 | 26248 ft | 413 kts | 161° |
| 2026-04-14 13:42 | -19.80762 | 54.88361 | 25639 ft | 409 kts | 161° |
| 2026-04-14 13:43 | -19.83410 | 54.89432 | 25026 ft | 406 kts | 161° |
| 2026-04-14 13:43 | -19.86035 | 54.90494 | 24398 ft | 404 kts | 161° |
| 2026-04-14 13:43 | -19.88658 | 54.91556 | 23777 ft | 401 kts | 161° |
| 2026-04-14 13:43 | -19.91257 | 54.92609 | 23081 ft | 400 kts | 161° |
| 2026-04-14 13:44 | -19.93843 | 54.93657 | 22423 ft | 396 kts | 161° |
| 2026-04-14 13:44 | -19.96405 | 54.94696 | 21808 ft | 392 kts | 160° |
| 2026-04-14 13:44 | -19.98942 | 54.95726 | 21184 ft | 389 kts | 161° |
| 2026-04-14 13:44 | -20.01457 | 54.96747 | 20579 ft | 385 kts | 161° |
| 2026-04-14 13:45 | -20.03953 | 54.97759 | 19983 ft | 383 kts | 161° |
| 2026-04-14 13:45 | -20.06434 | 54.98766 | 19358 ft | 381 kts | 160° |
| 2026-04-14 13:45 | -20.08906 | 54.99771 | 18752 ft | 380 kts | 160° |
| 2026-04-14 13:45 | -20.11369 | 55.00773 | 18114 ft | 378 kts | 160° |
| 2026-04-14 13:46 | -20.13822 | 55.01770 | 17455 ft | 376 kts | 161° |
| 2026-04-14 13:46 | -20.16222 | 55.02747 | 16847 ft | 373 kts | 161° |
| 2026-04-14 13:46 | -20.18632 | 55.03727 | 16239 ft | 369 kts | 161° |
| 2026-04-14 13:46 | -20.21020 | 55.04698 | 15649 ft | 365 kts | 161° |
| 2026-04-14 13:47 | -20.23379 | 55.05659 | 15058 ft | 362 kts | 161° |
| 2026-04-14 13:47 | -20.25724 | 55.06613 | 14457 ft | 360 kts | 161° |
| 2026-04-14 13:47 | -20.28052 | 55.07560 | 13864 ft | 357 kts | 161° |
| 2026-04-14 13:47 | -20.30365 | 55.08501 | 13206 ft | 354 kts | 160° |
| 2026-04-14 13:48 | -20.32654 | 55.09433 | 12597 ft | 350 kts | 160° |
| 2026-04-14 13:48 | -20.34920 | 55.10355 | 11985 ft | 347 kts | 160° |
| 2026-04-14 13:48 | -20.37162 | 55.11269 | 11409 ft | 343 kts | 160° |
| 2026-04-14 13:48 | -20.39380 | 55.12175 | 10825 ft | 340 kts | 160° |
| 2026-04-14 13:49 | -20.41576 | 55.13072 | 10322 ft | 335 kts | 159° |
| 2026-04-14 13:49 | -20.43722 | 55.13948 | 9916 ft | 327 kts | 159° |
| 2026-04-14 13:49 | -20.45836 | 55.14810 | 9340 ft | 324 kts | 159° |
| 2026-04-14 13:49 | -20.47936 | 55.15667 | 8756 ft | 322 kts | 159° |
| 2026-04-14 13:50 | -20.50019 | 55.16517 | 8214 ft | 319 kts | 159° |
| 2026-04-14 13:50 | -20.52080 | 55.17359 | 7688 ft | 316 kts | 159° |
| 2026-04-14 13:50 | -20.54078 | 55.18176 | 7570 ft | 299 kts | 159° |
| 2026-04-14 13:50 | -20.55971 | 55.18950 | 7454 ft | 284 kts | 159° |
| 2026-04-14 13:51 | -20.57797 | 55.19696 | 7134 ft | 279 kts | 159° |
| 2026-04-14 13:51 | -20.59608 | 55.20437 | 6730 ft | 278 kts | 159° |
| 2026-04-14 13:51 | -20.61409 | 55.21174 | 6356 ft | 276 kts | 159° |
| 2026-04-14 13:51 | -20.63198 | 55.21906 | 5926 ft | 275 kts | 159° |
| 2026-04-14 13:52 | -20.64975 | 55.22633 | 5552 ft | 273 kts | 159° |
| 2026-04-14 13:52 | -20.66741 | 55.23357 | 5161 ft | 271 kts | 159° |
| 2026-04-14 13:52 | -20.68495 | 55.24075 | 4772 ft | 270 kts | 159° |
| 2026-04-14 13:52 | -20.70242 | 55.24791 | 4376 ft | 268 kts | 159° |
| 2026-04-14 13:53 | -20.71954 | 55.25492 | 4245 ft | 256 kts | 159° |
| 2026-04-14 13:53 | -20.73581 | 55.26159 | 4156 ft | 244 kts | 159° |
| 2026-04-14 13:53 | -20.75129 | 55.26794 | 4069 ft | 233 kts | 159° |
| 2026-04-14 13:53 | -20.76613 | 55.27403 | 3935 ft | 225 kts | 158° |
| 2026-04-14 13:54 | -20.77844 | 55.28375 | 3680 ft | 222 kts | 125° |
| 2026-04-14 13:54 | -20.78484 | 55.29437 | 3650 ft | 213 kts | 123° |
| 2026-04-14 13:54 | -20.79246 | 55.30764 | 3505 ft | 206 kts | 120° |
| 2026-04-14 13:54 | -20.79914 | 55.32099 | 3380 ft | 204 kts | 117° |
| 2026-04-14 13:55 | -20.80550 | 55.33449 | 3301 ft | 199 kts | 117° |
| 2026-04-14 13:55 | -20.81145 | 55.34733 | 3108 ft | 193 kts | 116° |
| 2026-04-14 13:55 | -20.81740 | 55.36017 | 2859 ft | 189 kts | 117° |
| 2026-04-14 13:55 | -20.82322 | 55.37273 | 2642 ft | 189 kts | 117° |
| 2026-04-14 13:56 | -20.82901 | 55.38521 | 2389 ft | 190 kts | 116° |
| 2026-04-14 13:56 | -20.83485 | 55.39781 | 2141 ft | 188 kts | 116° |
| 2026-04-14 13:56 | -20.84058 | 55.41017 | 1920 ft | 183 kts | 116° |
| 2026-04-14 13:56 | -20.84616 | 55.42218 | 1711 ft | 177 kts | 116° |
| 2026-04-14 13:57 | -20.85165 | 55.43369 | 1466 ft | 171 kts | 116° |
| 2026-04-14 13:57 | -20.85667 | 55.44475 | 1268 ft | 156 kts | 114° |
| 2026-04-14 13:57 | -20.86106 | 55.45453 | 1059 ft | 139 kts | 116° |
| 2026-04-14 13:57 | -20.86534 | 55.46365 | 879 ft | 137 kts | 116° |
| 2026-04-14 13:58 | -20.86963 | 55.47279 | 705 ft | 138 kts | 116° |
| 2026-04-14 13:58 | -20.87374 | 55.48194 | 522 ft | 135 kts | 117° |
| 2026-04-14 13:58 | -20.87802 | 55.49081 | 353 ft | 134 kts | 116° |
| 2026-04-14 13:58 | -20.88212 | 55.49977 | 205 ft | 134 kts | 117° |
| 2026-04-14 13:59 | -20.88631 | 55.50862 | 56 ft | 128 kts | 116° |
| 2026-04-14 13:59 | -20.88960 | 55.51567 | 59 ft | 76 kts | 116° |
| 2026-04-14 13:59 | -20.89154 | 55.51984 | 60 ft | 55 kts | 117° |
| 2026-04-14 13:59 | -20.89265 | 55.52210 | 66 ft | 14 kts | 136° |
| 2026-04-14 14:00 | -20.89345 | 55.52204 | 73 ft | 12 kts | 206° |
| 2026-04-14 14:00 | -20.89409 | 55.52149 | 89 ft | 14 kts | 247° |
| 2026-04-14 14:00 | -20.89368 | 55.52043 | 86 ft | 17 kts | 298° |
| 2026-04-14 14:00 | -20.89314 | 55.51928 | 86 ft | 16 kts | 298° |
| 2026-04-14 14:01 | -20.89278 | 55.51853 | 83 ft | 11 kts | 295° |
| 2026-04-14 14:01 | -20.89246 | 55.51784 | 85 ft | 10 kts | 296° |
| 2026-04-14 14:01 | -20.89215 | 55.51717 | 83 ft | 10 kts | 296° |
| 2026-04-14 14:01 | -20.89184 | 55.51652 | 82 ft | 10 kts | 297° |
| 2026-04-14 14:02 | -20.89150 | 55.51581 | 81 ft | 12 kts | 296° |
| 2026-04-14 14:02 | -20.89108 | 55.51490 | 74 ft | 12 kts | 297° |
| 2026-04-14 14:02 | -20.89119 | 55.51443 | 71 ft | 6 kts | 208° |
| 2026-04-14 14:02 | -20.89157 | 55.51425 | 70 ft | 5 kts | 206° |
| 2026-04-14 14:03 | -20.89165 | 55.51421 | 69 ft | 0 kts | 206° |